sensor_id;sensor_type;location;lat;lon;timestamp;P1;durP1;ratioP1;P2;durP2;ratioP2
41923;SDS011;27613;48.116;11.656;2023-06-14T00:00:38;1.83;;;1.40;;
41923;SDS011;27613;48.116;11.656;2023-06-14T00:03:08;2.70;;;2.05;;
41923;SDS011;27613;48.116;11.656;2023-06-14T00:05:35;2.47;;;1.85;;
41923;SDS011;27613;48.116;11.656;2023-06-14T00:08:06;2.53;;;1.77;;
41923;SDS011;27613;48.116;11.656;2023-06-14T00:10:33;2.42;;;1.65;;
41923;SDS011;27613;48.116;11.656;2023-06-14T00:13:00;3.45;;;2.17;;
41923;SDS011;27613;48.116;11.656;2023-06-14T00:15:30;2.55;;;1.70;;
41923;SDS011;27613;48.116;11.656;2023-06-14T00:17:56;5.50;;;2.00;;
41923;SDS011;27613;48.116;11.656;2023-06-14T00:20:25;2.60;;;1.80;;
41923;SDS011;27613;48.116;11.656;2023-06-14T00:22:55;2.03;;;1.55;;
41923;SDS011;27613;48.116;11.656;2023-06-14T00:25:22;2.05;;;1.58;;
41923;SDS011;27613;48.116;11.656;2023-06-14T00:27:48;2.00;;;1.50;;
41923;SDS011;27613;48.116;11.656;2023-06-14T00:30:14;2.47;;;1.80;;
41923;SDS011;27613;48.116;11.656;2023-06-14T00:32:40;2.67;;;2.00;;
41923;SDS011;27613;48.116;11.656;2023-06-14T00:35:07;3.35;;;2.10;;
41923;SDS011;27613;48.116;11.656;2023-06-14T00:37:33;3.10;;;2.10;;
41923;SDS011;27613;48.116;11.656;2023-06-14T00:39:59;2.60;;;1.90;;
41923;SDS011;27613;48.116;11.656;2023-06-14T00:42:25;8.43;;;2.28;;
41923;SDS011;27613;48.116;11.656;2023-06-14T00:44:51;3.72;;;1.92;;
41923;SDS011;27613;48.116;11.656;2023-06-14T00:47:17;2.63;;;1.95;;
41923;SDS011;27613;48.116;11.656;2023-06-14T00:49:44;2.13;;;1.70;;
41923;SDS011;27613;48.116;11.656;2023-06-14T00:52:11;4.03;;;2.03;;
41923;SDS011;27613;48.116;11.656;2023-06-14T00:54:37;2.75;;;2.05;;
41923;SDS011;27613;48.116;11.656;2023-06-14T00:57:03;1.95;;;1.50;;
41923;SDS011;27613;48.116;11.656;2023-06-14T00:59:29;2.25;;;1.63;;
41923;SDS011;27613;48.116;11.656;2023-06-14T01:01:55;1.98;;;1.58;;
41923;SDS011;27613;48.116;11.656;2023-06-14T01:04:21;2.83;;;2.15;;
41923;SDS011;27613;48.116;11.656;2023-06-14T01:12:21;1.95;;;1.65;;
41923;SDS011;27613;48.116;11.656;2023-06-14T01:15:07;3.78;;;2.05;;
41923;SDS011;27613;48.116;11.656;2023-06-14T01:17:33;2.90;;;2.08;;
41923;SDS011;27613;48.116;11.656;2023-06-14T01:20:02;2.45;;;2.00;;
41923;SDS011;27613;48.116;11.656;2023-06-14T01:22:31;2.83;;;1.90;;
41923;SDS011;27613;48.116;11.656;2023-06-14T01:24:57;2.90;;;2.15;;
41923;SDS011;27613;48.116;11.656;2023-06-14T01:27:25;4.07;;;2.40;;
41923;SDS011;27613;48.116;11.656;2023-06-14T01:29:54;2.72;;;1.88;;
41923;SDS011;27613;48.116;11.656;2023-06-14T01:32:22;2.72;;;1.80;;
41923;SDS011;27613;48.116;11.656;2023-06-14T01:34:49;4.22;;;2.33;;
41923;SDS011;27613;48.116;11.656;2023-06-14T01:37:15;3.35;;;2.03;;
41923;SDS011;27613;48.116;11.656;2023-06-14T01:39:42;3.05;;;2.15;;
41923;SDS011;27613;48.116;11.656;2023-06-14T01:42:09;2.75;;;1.90;;
41923;SDS011;27613;48.116;11.656;2023-06-14T01:44:36;2.72;;;1.73;;
41923;SDS011;27613;48.116;11.656;2023-06-14T01:47:02;2.53;;;2.03;;
41923;SDS011;27613;48.116;11.656;2023-06-14T01:49:28;2.63;;;1.92;;
41923;SDS011;27613;48.116;11.656;2023-06-14T01:51:53;4.05;;;2.58;;
41923;SDS011;27613;48.116;11.656;2023-06-14T01:54:19;3.70;;;2.40;;
41923;SDS011;27613;48.116;11.656;2023-06-14T01:56:46;3.25;;;2.25;;
41923;SDS011;27613;48.116;11.656;2023-06-14T01:59:12;2.38;;;1.85;;
41923;SDS011;27613;48.116;11.656;2023-06-14T02:01:37;2.72;;;2.08;;
41923;SDS011;27613;48.116;11.656;2023-06-14T02:04:03;7.28;;;2.15;;
41923;SDS011;27613;48.116;11.656;2023-06-14T02:06:28;2.40;;;1.73;;
41923;SDS011;27613;48.116;11.656;2023-06-14T02:08:54;3.03;;;2.15;;
41923;SDS011;27613;48.116;11.656;2023-06-14T02:11:19;2.40;;;1.92;;
41923;SDS011;27613;48.116;11.656;2023-06-14T02:13:45;4.45;;;2.60;;
41923;SDS011;27613;48.116;11.656;2023-06-14T02:16:11;2.83;;;2.00;;
41923;SDS011;27613;48.116;11.656;2023-06-14T02:18:36;2.85;;;2.13;;
41923;SDS011;27613;48.116;11.656;2023-06-14T02:21:02;7.03;;;2.88;;
41923;SDS011;27613;48.116;11.656;2023-06-14T02:23:27;3.53;;;2.45;;
41923;SDS011;27613;48.116;11.656;2023-06-14T02:25:53;2.95;;;1.88;;
41923;SDS011;27613;48.116;11.656;2023-06-14T02:28:18;2.35;;;1.85;;
41923;SDS011;27613;48.116;11.656;2023-06-14T02:30:44;2.63;;;1.88;;
41923;SDS011;27613;48.116;11.656;2023-06-14T02:33:09;2.20;;;1.85;;
41923;SDS011;27613;48.116;11.656;2023-06-14T02:35:37;3.70;;;2.10;;
41923;SDS011;27613;48.116;11.656;2023-06-14T02:38:03;3.78;;;2.00;;
41923;SDS011;27613;48.116;11.656;2023-06-14T02:40:29;2.90;;;1.88;;
41923;SDS011;27613;48.116;11.656;2023-06-14T02:42:54;3.90;;;2.40;;
41923;SDS011;27613;48.116;11.656;2023-06-14T02:45:20;5.72;;;2.65;;
41923;SDS011;27613;48.116;11.656;2023-06-14T02:47:46;3.25;;;2.47;;
41923;SDS011;27613;48.116;11.656;2023-06-14T02:50:11;3.55;;;1.83;;
41923;SDS011;27613;48.116;11.656;2023-06-14T02:52:37;3.00;;;2.25;;
41923;SDS011;27613;48.116;11.656;2023-06-14T02:55:03;2.95;;;2.10;;
41923;SDS011;27613;48.116;11.656;2023-06-14T02:57:29;3.35;;;2.50;;
41923;SDS011;27613;48.116;11.656;2023-06-14T02:59:54;3.58;;;1.98;;
41923;SDS011;27613;48.116;11.656;2023-06-14T03:02:20;4.13;;;2.45;;
41923;SDS011;27613;48.116;11.656;2023-06-14T03:04:45;3.30;;;2.15;;
41923;SDS011;27613;48.116;11.656;2023-06-14T03:07:12;3.58;;;2.25;;
41923;SDS011;27613;48.116;11.656;2023-06-14T03:09:38;4.25;;;2.50;;
41923;SDS011;27613;48.116;11.656;2023-06-14T03:12:04;3.03;;;2.20;;
41923;SDS011;27613;48.116;11.656;2023-06-14T03:14:34;2.70;;;2.13;;
41923;SDS011;27613;48.116;11.656;2023-06-14T03:16:59;3.17;;;2.20;;
41923;SDS011;27613;48.116;11.656;2023-06-14T03:19:25;2.90;;;1.92;;
41923;SDS011;27613;48.116;11.656;2023-06-14T03:21:51;2.95;;;2.33;;
41923;SDS011;27613;48.116;11.656;2023-06-14T03:24:18;3.40;;;2.40;;
41923;SDS011;27613;48.116;11.656;2023-06-14T03:26:44;3.63;;;2.25;;
41923;SDS011;27613;48.116;11.656;2023-06-14T03:29:10;2.75;;;2.03;;
41923;SDS011;27613;48.116;11.656;2023-06-14T03:31:35;2.80;;;2.10;;
41923;SDS011;27613;48.116;11.656;2023-06-14T03:34:01;2.78;;;1.98;;
41923;SDS011;27613;48.116;11.656;2023-06-14T03:36:27;4.45;;;2.08;;
41923;SDS011;27613;48.116;11.656;2023-06-14T03:38:55;4.25;;;2.13;;
41923;SDS011;27613;48.116;11.656;2023-06-14T03:41:21;3.10;;;2.20;;
41923;SDS011;27613;48.116;11.656;2023-06-14T03:43:46;3.33;;;2.33;;
41923;SDS011;27613;48.116;11.656;2023-06-14T03:46:12;3.53;;;2.50;;
41923;SDS011;27613;48.116;11.656;2023-06-14T03:48:37;3.80;;;2.25;;
41923;SDS011;27613;48.116;11.656;2023-06-14T03:51:03;2.75;;;2.10;;
41923;SDS011;27613;48.116;11.656;2023-06-14T03:53:29;4.28;;;2.22;;
41923;SDS011;27613;48.116;11.656;2023-06-14T03:55:55;3.75;;;2.25;;
41923;SDS011;27613;48.116;11.656;2023-06-14T03:58:22;3.33;;;2.30;;
41923;SDS011;27613;48.116;11.656;2023-06-14T04:00:48;3.38;;;2.58;;
41923;SDS011;27613;48.116;11.656;2023-06-14T04:03:13;2.72;;;1.85;;
41923;SDS011;27613;48.116;11.656;2023-06-14T04:05:40;2.80;;;2.10;;
41923;SDS011;27613;48.116;11.656;2023-06-14T04:08:09;2.90;;;2.20;;
41923;SDS011;27613;48.116;11.656;2023-06-14T04:10:35;3.03;;;2.15;;
41923;SDS011;27613;48.116;11.656;2023-06-14T04:13:01;3.30;;;2.45;;
41923;SDS011;27613;48.116;11.656;2023-06-14T04:15:26;3.33;;;2.42;;
41923;SDS011;27613;48.116;11.656;2023-06-14T04:17:53;3.33;;;2.40;;
41923;SDS011;27613;48.116;11.656;2023-06-14T04:20:22;3.05;;;2.28;;
41923;SDS011;27613;48.116;11.656;2023-06-14T04:22:49;5.03;;;2.22;;
41923;SDS011;27613;48.116;11.656;2023-06-14T04:25:15;3.20;;;2.30;;
41923;SDS011;27613;48.116;11.656;2023-06-14T04:27:41;3.55;;;2.20;;
41923;SDS011;27613;48.116;11.656;2023-06-14T04:30:07;3.10;;;2.22;;
41923;SDS011;27613;48.116;11.656;2023-06-14T04:32:33;4.65;;;2.90;;
41923;SDS011;27613;48.116;11.656;2023-06-14T04:34:59;3.88;;;2.53;;
41923;SDS011;27613;48.116;11.656;2023-06-14T04:37:28;3.55;;;2.30;;
41923;SDS011;27613;48.116;11.656;2023-06-14T04:39:55;4.28;;;2.20;;
41923;SDS011;27613;48.116;11.656;2023-06-14T04:42:21;5.40;;;2.72;;
41923;SDS011;27613;48.116;11.656;2023-06-14T04:44:49;10.38;;;2.92;;
41923;SDS011;27613;48.116;11.656;2023-06-14T04:47:15;3.33;;;2.13;;
41923;SDS011;27613;48.116;11.656;2023-06-14T04:49:41;6.68;;;2.25;;
41923;SDS011;27613;48.116;11.656;2023-06-14T04:52:07;2.97;;;2.08;;
41923;SDS011;27613;48.116;11.656;2023-06-14T04:54:35;3.67;;;2.45;;
41923;SDS011;27613;48.116;11.656;2023-06-14T04:57:02;2.72;;;1.85;;
41923;SDS011;27613;48.116;11.656;2023-06-14T04:59:31;3.20;;;1.92;;
41923;SDS011;27613;48.116;11.656;2023-06-14T05:01:58;4.70;;;2.38;;
41923;SDS011;27613;48.116;11.656;2023-06-14T05:04:25;3.25;;;2.08;;
41923;SDS011;27613;48.116;11.656;2023-06-14T05:06:52;3.10;;;2.20;;
41923;SDS011;27613;48.116;11.656;2023-06-14T05:09:19;2.65;;;1.95;;
41923;SDS011;27613;48.116;11.656;2023-06-14T05:11:46;3.00;;;2.00;;
41923;SDS011;27613;48.116;11.656;2023-06-14T05:14:12;2.90;;;2.00;;
41923;SDS011;27613;48.116;11.656;2023-06-14T05:16:39;5.03;;;2.60;;
41923;SDS011;27613;48.116;11.656;2023-06-14T05:19:05;2.92;;;1.80;;
41923;SDS011;27613;48.116;11.656;2023-06-14T05:21:31;2.72;;;1.85;;
41923;SDS011;27613;48.116;11.656;2023-06-14T05:23:58;2.78;;;1.95;;
41923;SDS011;27613;48.116;11.656;2023-06-14T05:26:24;2.88;;;1.95;;
41923;SDS011;27613;48.116;11.656;2023-06-14T05:28:53;7.70;;;2.53;;
41923;SDS011;27613;48.116;11.656;2023-06-14T05:31:21;2.75;;;2.08;;
41923;SDS011;27613;48.116;11.656;2023-06-14T05:33:49;2.40;;;1.85;;
41923;SDS011;27613;48.116;11.656;2023-06-14T05:36:15;4.13;;;2.30;;
41923;SDS011;27613;48.116;11.656;2023-06-14T05:38:41;2.33;;;1.80;;
41923;SDS011;27613;48.116;11.656;2023-06-14T05:41:06;3.60;;;2.33;;
41923;SDS011;27613;48.116;11.656;2023-06-14T05:43:32;3.88;;;2.22;;
41923;SDS011;27613;48.116;11.656;2023-06-14T05:45:57;3.45;;;2.00;;
41923;SDS011;27613;48.116;11.656;2023-06-14T05:48:23;2.38;;;1.83;;
41923;SDS011;27613;48.116;11.656;2023-06-14T05:50:48;2.38;;;1.77;;
41923;SDS011;27613;48.116;11.656;2023-06-14T05:53:14;2.60;;;1.95;;
41923;SDS011;27613;48.116;11.656;2023-06-14T05:55:39;3.22;;;2.28;;
41923;SDS011;27613;48.116;11.656;2023-06-14T05:58:05;2.83;;;2.03;;
41923;SDS011;27613;48.116;11.656;2023-06-14T06:00:30;2.40;;;1.77;;
41923;SDS011;27613;48.116;11.656;2023-06-14T06:02:56;4.28;;;2.35;;
41923;SDS011;27613;48.116;11.656;2023-06-14T06:05:25;3.83;;;2.03;;
41923;SDS011;27613;48.116;11.656;2023-06-14T06:07:51;5.22;;;2.25;;
41923;SDS011;27613;48.116;11.656;2023-06-14T06:10:16;3.72;;;2.28;;
41923;SDS011;27613;48.116;11.656;2023-06-14T06:12:42;2.63;;;1.55;;
41923;SDS011;27613;48.116;11.656;2023-06-14T06:15:08;2.22;;;1.63;;
41923;SDS011;27613;48.116;11.656;2023-06-14T06:17:37;2.53;;;1.85;;
41923;SDS011;27613;48.116;11.656;2023-06-14T06:20:02;2.78;;;1.75;;
41923;SDS011;27613;48.116;11.656;2023-06-14T06:22:30;3.90;;;1.75;;
41923;SDS011;27613;48.116;11.656;2023-06-14T06:24:56;2.47;;;1.98;;
41923;SDS011;27613;48.116;11.656;2023-06-14T06:27:21;4.90;;;2.35;;
41923;SDS011;27613;48.116;11.656;2023-06-14T06:29:47;4.03;;;2.00;;
41923;SDS011;27613;48.116;11.656;2023-06-14T06:32:13;5.15;;;2.50;;
41923;SDS011;27613;48.116;11.656;2023-06-14T06:34:39;2.88;;;2.13;;
41923;SDS011;27613;48.116;11.656;2023-06-14T06:37:05;3.25;;;2.20;;
41923;SDS011;27613;48.116;11.656;2023-06-14T06:39:31;3.38;;;2.22;;
41923;SDS011;27613;48.116;11.656;2023-06-14T06:41:56;2.60;;;1.83;;
41923;SDS011;27613;48.116;11.656;2023-06-14T06:44:22;2.67;;;1.88;;
41923;SDS011;27613;48.116;11.656;2023-06-14T06:46:48;2.58;;;1.90;;
41923;SDS011;27613;48.116;11.656;2023-06-14T06:49:13;3.08;;;2.22;;
41923;SDS011;27613;48.116;11.656;2023-06-14T06:51:41;3.55;;;2.13;;
41923;SDS011;27613;48.116;11.656;2023-06-14T06:54:07;6.10;;;1.90;;
41923;SDS011;27613;48.116;11.656;2023-06-14T06:56:33;3.80;;;2.20;;
41923;SDS011;27613;48.116;11.656;2023-06-14T06:58:59;5.43;;;2.80;;
41923;SDS011;27613;48.116;11.656;2023-06-14T07:01:25;3.65;;;1.88;;
41923;SDS011;27613;48.116;11.656;2023-06-14T07:03:51;2.33;;;1.70;;
41923;SDS011;27613;48.116;11.656;2023-06-14T07:06:16;4.10;;;2.22;;
41923;SDS011;27613;48.116;11.656;2023-06-14T07:08:43;3.63;;;1.85;;
41923;SDS011;27613;48.116;11.656;2023-06-14T07:11:09;3.35;;;1.88;;
41923;SDS011;27613;48.116;11.656;2023-06-14T07:13:35;2.97;;;1.92;;
41923;SDS011;27613;48.116;11.656;2023-06-14T07:16:00;2.03;;;1.60;;
41923;SDS011;27613;48.116;11.656;2023-06-14T07:18:26;3.17;;;2.00;;
41923;SDS011;27613;48.116;11.656;2023-06-14T07:20:52;4.03;;;1.83;;
41923;SDS011;27613;48.116;11.656;2023-06-14T07:23:19;2.75;;;1.65;;
41923;SDS011;27613;48.116;11.656;2023-06-14T07:25:48;3.05;;;1.85;;
41923;SDS011;27613;48.116;11.656;2023-06-14T07:28:13;3.78;;;1.75;;
41923;SDS011;27613;48.116;11.656;2023-06-14T07:30:39;3.53;;;1.52;;
41923;SDS011;27613;48.116;11.656;2023-06-14T07:33:04;2.60;;;1.65;;
41923;SDS011;27613;48.116;11.656;2023-06-14T07:35:30;2.55;;;1.60;;
41923;SDS011;27613;48.116;11.656;2023-06-14T07:37:56;2.42;;;1.85;;
41923;SDS011;27613;48.116;11.656;2023-06-14T07:40:22;2.40;;;1.50;;
41923;SDS011;27613;48.116;11.656;2023-06-14T07:42:47;2.17;;;1.65;;
41923;SDS011;27613;48.116;11.656;2023-06-14T07:45:14;2.22;;;1.38;;
41923;SDS011;27613;48.116;11.656;2023-06-14T07:47:40;4.63;;;2.20;;
41923;SDS011;27613;48.116;11.656;2023-06-14T07:50:05;3.55;;;1.92;;
41923;SDS011;27613;48.116;11.656;2023-06-14T07:52:31;2.95;;;1.58;;
41923;SDS011;27613;48.116;11.656;2023-06-14T07:54:57;2.28;;;1.42;;
41923;SDS011;27613;48.116;11.656;2023-06-14T07:57:23;2.85;;;1.50;;
41923;SDS011;27613;48.116;11.656;2023-06-14T07:59:48;6.93;;;2.00;;
41923;SDS011;27613;48.116;11.656;2023-06-14T08:02:14;3.33;;;1.58;;
41923;SDS011;27613;48.116;11.656;2023-06-14T08:04:40;2.47;;;1.77;;
41923;SDS011;27613;48.116;11.656;2023-06-14T08:07:07;4.07;;;1.58;;
41923;SDS011;27613;48.116;11.656;2023-06-14T08:09:32;2.65;;;1.80;;
41923;SDS011;27613;48.116;11.656;2023-06-14T08:11:58;3.55;;;1.60;;
41923;SDS011;27613;48.116;11.656;2023-06-14T08:14:23;2.60;;;1.65;;
41923;SDS011;27613;48.116;11.656;2023-06-14T08:16:49;3.05;;;1.42;;
41923;SDS011;27613;48.116;11.656;2023-06-14T08:19:14;1.90;;;1.40;;
41923;SDS011;27613;48.116;11.656;2023-06-14T08:21:41;1.98;;;1.60;;
41923;SDS011;27613;48.116;11.656;2023-06-14T08:24:08;2.08;;;1.40;;
41923;SDS011;27613;48.116;11.656;2023-06-14T08:26:37;2.78;;;1.60;;
41923;SDS011;27613;48.116;11.656;2023-06-14T08:29:03;2.53;;;1.27;;
41923;SDS011;27613;48.116;11.656;2023-06-14T08:31:29;1.58;;;1.23;;
41923;SDS011;27613;48.116;11.656;2023-06-14T08:33:56;2.45;;;1.65;;
41923;SDS011;27613;48.116;11.656;2023-06-14T08:36:22;2.90;;;1.67;;
41923;SDS011;27613;48.116;11.656;2023-06-14T08:38:47;2.03;;;1.38;;
41923;SDS011;27613;48.116;11.656;2023-06-14T08:41:13;2.03;;;1.40;;
41923;SDS011;27613;48.116;11.656;2023-06-14T08:43:46;3.55;;;1.60;;
41923;SDS011;27613;48.116;11.656;2023-06-14T08:46:12;1.85;;;1.35;;
41923;SDS011;27613;48.116;11.656;2023-06-14T08:48:41;2.70;;;1.63;;
41923;SDS011;27613;48.116;11.656;2023-06-14T08:51:08;2.25;;;1.48;;
41923;SDS011;27613;48.116;11.656;2023-06-14T08:53:35;1.77;;;1.33;;
41923;SDS011;27613;48.116;11.656;2023-06-14T08:56:07;2.72;;;1.70;;
41923;SDS011;27613;48.116;11.656;2023-06-14T08:58:39;3.28;;;1.73;;
41923;SDS011;27613;48.116;11.656;2023-06-14T09:01:09;2.42;;;1.52;;
41923;SDS011;27613;48.116;11.656;2023-06-14T09:03:40;2.60;;;1.67;;
41923;SDS011;27613;48.116;11.656;2023-06-14T09:06:06;2.10;;;1.40;;
41923;SDS011;27613;48.116;11.656;2023-06-14T09:08:38;2.78;;;1.70;;
41923;SDS011;27613;48.116;11.656;2023-06-14T09:11:11;2.55;;;1.67;;
41923;SDS011;27613;48.116;11.656;2023-06-14T09:13:38;1.30;;;1.20;;
41923;SDS011;27613;48.116;11.656;2023-06-14T09:16:04;2.85;;;1.58;;
41923;SDS011;27613;48.116;11.656;2023-06-14T09:21:08;2.50;;;1.42;;
41923;SDS011;27613;48.116;11.656;2023-06-14T09:23:41;2.25;;;1.40;;
41923;SDS011;27613;48.116;11.656;2023-06-14T09:26:09;3.38;;;1.80;;
41923;SDS011;27613;48.116;11.656;2023-06-14T09:28:36;1.90;;;1.35;;
41923;SDS011;27613;48.116;11.656;2023-06-14T09:31:06;1.67;;;1.33;;
41923;SDS011;27613;48.116;11.656;2023-06-14T09:33:33;2.35;;;1.70;;
41923;SDS011;27613;48.116;11.656;2023-06-14T09:35:59;3.00;;;1.73;;
41923;SDS011;27613;48.116;11.656;2023-06-14T09:38:25;2.53;;;1.50;;
41923;SDS011;27613;48.116;11.656;2023-06-14T09:40:51;15.48;;;1.50;;
41923;SDS011;27613;48.116;11.656;2023-06-14T09:43:17;1.63;;;1.40;;
41923;SDS011;27613;48.116;11.656;2023-06-14T09:45:43;7.32;;;1.50;;
41923;SDS011;27613;48.116;11.656;2023-06-14T09:48:11;1.95;;;1.40;;
41923;SDS011;27613;48.116;11.656;2023-06-14T09:50:37;2.58;;;1.52;;
41923;SDS011;27613;48.116;11.656;2023-06-14T09:53:07;2.63;;;1.60;;
41923;SDS011;27613;48.116;11.656;2023-06-14T09:55:35;2.60;;;1.63;;
41923;SDS011;27613;48.116;11.656;2023-06-14T09:58:04;2.17;;;1.75;;
41923;SDS011;27613;48.116;11.656;2023-06-14T10:00:31;2.55;;;1.80;;
41923;SDS011;27613;48.116;11.656;2023-06-14T10:03:00;1.45;;;1.20;;
41923;SDS011;27613;48.116;11.656;2023-06-14T10:05:32;1.70;;;1.20;;
41923;SDS011;27613;48.116;11.656;2023-06-14T10:08:07;2.55;;;1.33;;
41923;SDS011;27613;48.116;11.656;2023-06-14T10:10:35;4.15;;;1.58;;
41923;SDS011;27613;48.116;11.656;2023-06-14T10:13:03;2.53;;;1.50;;
41923;SDS011;27613;48.116;11.656;2023-06-14T10:15:41;2.28;;;1.60;;
41923;SDS011;27613;48.116;11.656;2023-06-14T10:18:14;2.03;;;1.48;;
41923;SDS011;27613;48.116;11.656;2023-06-14T10:20:51;4.20;;;1.50;;
41923;SDS011;27613;48.116;11.656;2023-06-14T10:23:35;1.90;;;1.27;;
41923;SDS011;27613;48.116;11.656;2023-06-14T10:26:05;1.88;;;1.45;;
41923;SDS011;27613;48.116;11.656;2023-06-14T10:28:30;1.70;;;1.30;;
41923;SDS011;27613;48.116;11.656;2023-06-14T10:31:10;3.00;;;1.38;;
41923;SDS011;27613;48.116;11.656;2023-06-14T10:33:48;1.42;;;1.17;;
41923;SDS011;27613;48.116;11.656;2023-06-14T10:36:25;2.30;;;1.40;;
41923;SDS011;27613;48.116;11.656;2023-06-14T10:38:59;11.57;;;1.50;;
41923;SDS011;27613;48.116;11.656;2023-06-14T10:41:36;1.45;;;1.20;;
41923;SDS011;27613;48.116;11.656;2023-06-14T10:46:38;1.40;;;1.13;;
41923;SDS011;27613;48.116;11.656;2023-06-14T10:49:04;2.17;;;1.33;;
41923;SDS011;27613;48.116;11.656;2023-06-14T10:51:38;2.00;;;1.40;;
41923;SDS011;27613;48.116;11.656;2023-06-14T10:54:15;1.90;;;1.35;;
41923;SDS011;27613;48.116;11.656;2023-06-14T10:56:47;1.40;;;1.10;;
41923;SDS011;27613;48.116;11.656;2023-06-14T10:59:18;4.30;;;1.58;;
41923;SDS011;27613;48.116;11.656;2023-06-14T11:01:57;1.35;;;1.17;;
41923;SDS011;27613;48.116;11.656;2023-06-14T11:07:25;1.30;;;1.10;;
41923;SDS011;27613;48.116;11.656;2023-06-14T11:12:47;1.95;;;1.42;;
41923;SDS011;27613;48.116;11.656;2023-06-14T11:15:13;2.08;;;1.10;;
41923;SDS011;27613;48.116;11.656;2023-06-14T11:17:39;2.67;;;1.40;;
41923;SDS011;27613;48.116;11.656;2023-06-14T11:20:14;2.60;;;1.25;;
41923;SDS011;27613;48.116;11.656;2023-06-14T11:22:43;1.75;;;1.10;;
41923;SDS011;27613;48.116;11.656;2023-06-14T11:25:09;2.00;;;1.48;;
41923;SDS011;27613;48.116;11.656;2023-06-14T11:27:38;2.45;;;1.35;;
41923;SDS011;27613;48.116;11.656;2023-06-14T11:30:06;1.58;;;1.13;;
41923;SDS011;27613;48.116;11.656;2023-06-14T11:32:33;2.35;;;1.60;;
41923;SDS011;27613;48.116;11.656;2023-06-14T11:34:58;1.42;;;1.20;;
41923;SDS011;27613;48.116;11.656;2023-06-14T11:37:25;1.63;;;1.15;;
41923;SDS011;27613;48.116;11.656;2023-06-14T11:39:55;1.40;;;1.25;;
41923;SDS011;27613;48.116;11.656;2023-06-14T11:42:22;1.38;;;1.15;;
41923;SDS011;27613;48.116;11.656;2023-06-14T11:44:49;2.00;;;1.45;;
41923;SDS011;27613;48.116;11.656;2023-06-14T11:47:14;1.95;;;1.40;;
41923;SDS011;27613;48.116;11.656;2023-06-14T11:49:40;1.80;;;1.35;;
41923;SDS011;27613;48.116;11.656;2023-06-14T11:52:06;1.27;;;1.10;;
41923;SDS011;27613;48.116;11.656;2023-06-14T11:54:32;1.90;;;1.50;;
41923;SDS011;27613;48.116;11.656;2023-06-14T11:56:58;1.90;;;1.48;;
41923;SDS011;27613;48.116;11.656;2023-06-14T11:59:24;1.63;;;1.20;;
41923;SDS011;27613;48.116;11.656;2023-06-14T12:01:50;1.17;;;1.08;;
41923;SDS011;27613;48.116;11.656;2023-06-14T12:04:28;1.88;;;1.48;;
41923;SDS011;27613;48.116;11.656;2023-06-14T12:06:54;1.90;;;1.30;;
41923;SDS011;27613;48.116;11.656;2023-06-14T12:09:21;2.22;;;1.40;;
41923;SDS011;27613;48.116;11.656;2023-06-14T12:11:48;2.50;;;1.17;;
41923;SDS011;27613;48.116;11.656;2023-06-14T12:14:14;1.95;;;1.17;;
41923;SDS011;27613;48.116;11.656;2023-06-14T12:16:40;2.03;;;1.30;;
41923;SDS011;27613;48.116;11.656;2023-06-14T12:21:38;2.05;;;1.60;;
41923;SDS011;27613;48.116;11.656;2023-06-14T12:24:05;1.58;;;1.23;;
41923;SDS011;27613;48.116;11.656;2023-06-14T12:26:32;1.50;;;1.25;;
41923;SDS011;27613;48.116;11.656;2023-06-14T12:28:57;1.95;;;1.50;;
41923;SDS011;27613;48.116;11.656;2023-06-14T12:31:23;2.20;;;1.40;;
41923;SDS011;27613;48.116;11.656;2023-06-14T12:33:49;1.67;;;1.40;;
41923;SDS011;27613;48.116;11.656;2023-06-14T12:36:15;2.00;;;1.52;;
41923;SDS011;27613;48.116;11.656;2023-06-14T12:38:41;2.47;;;1.48;;
41923;SDS011;27613;48.116;11.656;2023-06-14T12:41:07;1.63;;;1.35;;
41923;SDS011;27613;48.116;11.656;2023-06-14T12:43:32;1.75;;;1.40;;
41923;SDS011;27613;48.116;11.656;2023-06-14T12:45:59;7.28;;;1.40;;
41923;SDS011;27613;48.116;11.656;2023-06-14T12:48:25;1.17;;;1.08;;
41923;SDS011;27613;48.116;11.656;2023-06-14T12:50:52;2.22;;;1.40;;
41923;SDS011;27613;48.116;11.656;2023-06-14T12:53:18;1.40;;;1.30;;
41923;SDS011;27613;48.116;11.656;2023-06-14T12:55:44;1.70;;;1.20;;
41923;SDS011;27613;48.116;11.656;2023-06-14T12:58:09;1.88;;;1.33;;
41923;SDS011;27613;48.116;11.656;2023-06-14T13:00:37;1.45;;;1.10;;
41923;SDS011;27613;48.116;11.656;2023-06-14T13:03:03;3.63;;;1.77;;
41923;SDS011;27613;48.116;11.656;2023-06-14T13:05:28;1.73;;;1.15;;
41923;SDS011;27613;48.116;11.656;2023-06-14T13:07:56;1.50;;;1.23;;
41923;SDS011;27613;48.116;11.656;2023-06-14T13:10:22;1.73;;;1.23;;
41923;SDS011;27613;48.116;11.656;2023-06-14T13:12:47;2.10;;;1.30;;
41923;SDS011;27613;48.116;11.656;2023-06-14T13:15:13;1.83;;;1.35;;
41923;SDS011;27613;48.116;11.656;2023-06-14T13:17:38;1.92;;;1.42;;
41923;SDS011;27613;48.116;11.656;2023-06-14T13:20:05;2.22;;;1.15;;
41923;SDS011;27613;48.116;11.656;2023-06-14T13:22:31;1.77;;;1.17;;
41923;SDS011;27613;48.116;11.656;2023-06-14T13:24:57;1.70;;;1.30;;
41923;SDS011;27613;48.116;11.656;2023-06-14T13:27:23;2.20;;;1.33;;
41923;SDS011;27613;48.116;11.656;2023-06-14T13:29:49;2.20;;;1.52;;
41923;SDS011;27613;48.116;11.656;2023-06-14T13:32:15;5.68;;;1.50;;
41923;SDS011;27613;48.116;11.656;2023-06-14T13:34:40;1.92;;;1.30;;
41923;SDS011;27613;48.116;11.656;2023-06-14T13:37:06;1.92;;;1.20;;
41923;SDS011;27613;48.116;11.656;2023-06-14T13:39:32;2.33;;;1.40;;
41923;SDS011;27613;48.116;11.656;2023-06-14T13:41:57;1.60;;;1.15;;
41923;SDS011;27613;48.116;11.656;2023-06-14T13:44:23;2.58;;;1.65;;
41923;SDS011;27613;48.116;11.656;2023-06-14T13:46:49;1.15;;;1.05;;
41923;SDS011;27613;48.116;11.656;2023-06-14T13:49:15;2.47;;;1.30;;
41923;SDS011;27613;48.116;11.656;2023-06-14T13:51:41;1.48;;;1.30;;
41923;SDS011;27613;48.116;11.656;2023-06-14T13:54:07;1.90;;;1.20;;
41923;SDS011;27613;48.116;11.656;2023-06-14T13:56:32;1.65;;;1.30;;
41923;SDS011;27613;48.116;11.656;2023-06-14T13:58:58;1.13;;;1.02;;
41923;SDS011;27613;48.116;11.656;2023-06-14T14:01:25;1.45;;;1.25;;
41923;SDS011;27613;48.116;11.656;2023-06-14T14:03:51;1.55;;;1.30;;
41923;SDS011;27613;48.116;11.656;2023-06-14T14:06:17;8.00;;;1.42;;
41923;SDS011;27613;48.116;11.656;2023-06-14T14:08:42;1.70;;;1.33;;
41923;SDS011;27613;48.116;11.656;2023-06-14T14:11:09;2.17;;;1.30;;
41923;SDS011;27613;48.116;11.656;2023-06-14T14:13:35;1.95;;;1.40;;
41923;SDS011;27613;48.116;11.656;2023-06-14T14:16:01;2.72;;;1.45;;
41923;SDS011;27613;48.116;11.656;2023-06-14T14:18:28;1.98;;;1.30;;
41923;SDS011;27613;48.116;11.656;2023-06-14T14:20:54;1.52;;;1.20;;
41923;SDS011;27613;48.116;11.656;2023-06-14T14:23:20;1.70;;;1.45;;
41923;SDS011;27613;48.116;11.656;2023-06-14T14:25:46;2.08;;;1.55;;
41923;SDS011;27613;48.116;11.656;2023-06-14T14:28:12;3.70;;;1.20;;
41923;SDS011;27613;48.116;11.656;2023-06-14T14:30:40;1.20;;;1.10;;
41923;SDS011;27613;48.116;11.656;2023-06-14T14:33:06;3.08;;;1.30;;
41923;SDS011;27613;48.116;11.656;2023-06-14T14:35:32;1.92;;;1.20;;
41923;SDS011;27613;48.116;11.656;2023-06-14T14:37:58;1.65;;;1.27;;
41923;SDS011;27613;48.116;11.656;2023-06-14T14:40:23;1.88;;;1.30;;
41923;SDS011;27613;48.116;11.656;2023-06-14T14:42:49;2.08;;;1.55;;
41923;SDS011;27613;48.116;11.656;2023-06-14T14:45:15;2.80;;;1.30;;
41923;SDS011;27613;48.116;11.656;2023-06-14T14:47:41;2.08;;;1.25;;
41923;SDS011;27613;48.116;11.656;2023-06-14T14:50:06;2.58;;;1.40;;